Time;durP1;ratioP1;P1;durP2;ratioP2;P2;SDS_P1;SDS_P2;PMS_P1;PMS_P2;Temp;Humidity;BMP_temperature;BMP_pressure;BME280_temperature;BME280_humidity;BME280_pressure;Samples;Min_cycle;Max_cycle;Signal;HPM_P1;HPM_P2
2023/09/18 00:00:02;;;;;;;6.95;6.32;;;;;;;20.26;86.68;100996.75;6158438;28;20250;-74
2023/09/18 00:03:29;;;;;;;6.93;5.68;;;;;;;20.32;86.80;100990.50;6144955;28;20501;-74
2023/09/18 00:06:49;;;;;;;6.05;5.47;;;;;;;20.27;86.71;100984.78;6155009;28;20231;-74
2023/09/18 00:10:13;;;;;;;5.68;5.18;;;;;;;20.20;87.10;100980.25;6149069;28;20242;-75
2023/09/18 00:13:34;;;;;;;9.43;7.30;;;;;;;20.19;86.94;100979.41;6158326;28;20250;-75
2023/09/18 00:16:57;;;;;;;6.25;4.82;;;;;;;20.20;86.87;100974.78;6155790;28;20321;-75
2023/09/18 00:20:18;;;;;;;4.57;4.00;;;;;;;20.20;86.27;100974.78;6146838;28;20261;-75
2023/09/18 00:23:39;;;;;;;6.38;4.15;;;;;;;20.17;85.95;100975.97;6156739;28;20394;-75
2023/09/18 00:27:01;;;;;;;4.65;4.30;;;;;;;20.01;86.16;100970.78;6161797;28;20238;-75
2023/09/18 00:30:22;;;;;;;4.80;4.10;;;;;;;19.97;86.46;100958.53;6153139;28;20238;-75
2023/09/18 00:33:43;;;;;;;4.78;4.38;;;;;;;19.99;86.66;100950.97;6144775;28;20525;-75
2023/09/18 00:37:04;;;;;;;4.50;4.10;;;;;;;20.04;86.38;100944.91;6146667;28;20238;-75
2023/09/18 00:40:24;;;;;;;4.20;3.90;;;;;;;20.05;86.35;100930.19;6152266;28;20238;-75
2023/09/18 00:43:47;;;;;;;5.10;4.63;;;;;;;19.95;86.76;100930.50;6145910;28;20254;-75
2023/09/18 00:47:09;;;;;;;3.85;3.45;;;;;;;19.98;86.25;100929.28;6162942;28;20234;-75
2023/09/18 00:50:30;;;;;;;4.50;4.10;;;;;;;19.86;85.92;100934.41;6162309;28;20238;-75
2023/09/18 00:53:52;;;;;;;4.43;4.03;;;;;;;19.84;86.91;100920.06;6157006;28;20230;-75
2023/09/18 00:57:13;;;;;;;5.60;5.10;;;;;;;19.93;86.74;100911.56;6164969;28;20277;-75
2023/09/18 01:00:35;;;;;;;4.72;4.32;;;;;;;19.73;86.56;100913.22;6159560;28;20234;-75
2023/09/18 01:03:56;;;;;;;4.28;3.88;;;;;;;19.64;87.05;100914.41;6150918;28;20559;-75
2023/09/18 01:07:18;;;;;;;4.85;4.45;;;;;;;19.38;87.46;100908.63;6164788;28;20239;-74
2023/09/18 01:10:48;;;;;;;5.35;3.78;;;;;;;19.40;88.46;100916.66;6159945;28;20231;-75
2023/09/18 01:14:17;;;;;;;4.68;4.38;;;;;;;19.40;88.74;100903.81;6157664;28;20234;-75
2023/09/18 01:17:40;;;;;;;3.63;3.33;;;;;;;19.37;89.02;100901.47;6158701;28;20246;-75
2023/09/18 01:21:01;;;;;;;5.80;4.95;;;;;;;19.57;88.76;100890.75;6147739;28;20249;-75
2023/09/18 01:24:23;;;;;;;4.93;4.53;;;;;;;19.63;87.95;100890.00;6162529;28;20353;-75
2023/09/18 01:27:44;;;;;;;6.38;4.03;;;;;;;19.64;87.59;100883.47;6144471;28;20671;-75
2023/09/18 01:31:05;;;;;;;4.40;4.00;;;;;;;19.59;87.61;100881.31;6163985;28;20246;-75
2023/09/18 01:34:31;;;;;;;4.05;3.75;;;;;;;19.60;87.65;100877.53;6158555;28;20620;-75
2023/09/18 01:37:53;;;;;;;4.60;4.20;;;;;;;19.65;87.92;100863.28;6161783;28;20235;-74
2023/09/18 01:41:17;;;;;;;5.05;4.13;;;;;;;19.63;87.91;100862.63;6163572;28;20246;-75
2023/09/18 01:44:38;;;;;;;5.30;3.72;;;;;;;19.46;87.65;100852.97;6163277;28;20317;-75
2023/09/18 01:47:59;;;;;;;4.22;3.85;;;;;;;19.48;87.75;100850.91;6155798;28;20624;-76
2023/09/18 01:51:20;;;;;;;5.18;4.78;;;;;;;19.57;87.84;100845.09;6163041;28;20247;-75
2023/09/18 01:54:41;;;;;;;4.85;4.25;;;;;;;19.54;88.21;100839.19;6160907;28;20238;-75
2023/09/18 01:58:03;;;;;;;6.22;5.50;;;;;;;19.57;88.36;100831.41;6160970;28;20309;-75
2023/09/18 02:01:25;;;;;;;5.68;5.13;;;;;;;19.56;88.50;100827.00;6145635;28;20234;-75
2023/09/18 02:04:46;;;;;;;5.05;4.63;;;;;;;19.52;88.14;100813.91;6111687;28;20238;-75
2023/09/18 02:08:07;;;;;;;4.88;4.40;;;;;;;19.47;88.03;100806.28;6156347;28;20227;-76
2023/09/18 02:11:28;;;;;;;4.78;4.38;;;;;;;19.46;88.08;100817.44;6155792;28;20541;-75
2023/09/18 02:14:51;;;;;;;4.45;4.05;;;;;;;19.45;87.76;100808.38;6145296;28;20223;-74
2023/09/18 02:18:12;;;;;;;4.10;3.80;;;;;;;19.48;87.91;100793.47;6154123;28;20242;-75
2023/09/18 02:21:33;;;;;;;4.70;4.15;;;;;;;19.54;87.84;100785.34;6158522;28;20318;-76
2023/09/18 02:24:54;;;;;;;4.65;4.25;;;;;;;19.58;87.53;100786.63;6158707;28;20231;-75
2023/09/18 02:28:15;;;;;;;5.15;4.60;;;;;;;19.52;87.30;100781.09;6156705;28;20230;-74
2023/09/18 02:31:38;;;;;;;4.28;3.97;;;;;;;19.41;87.58;100779.72;6159543;28;20266;-75
2023/09/18 02:34:59;;;;;;;4.30;4.00;;;;;;;19.48;87.32;100782.53;6158054;28;20222;-75
2023/09/18 02:38:20;;;;;;;4.90;4.40;;;;;;;19.52;87.27;100776.47;6160703;28;20235;-74
2023/09/18 02:41:41;;;;;;;4.50;4.10;;;;;;;19.50;87.53;100777.72;6158354;28;20238;-74
2023/09/18 02:45:02;;;;;;;4.63;4.03;;;;;;;19.33;87.33;100768.91;6151260;28;20242;-75
2023/09/18 02:48:24;;;;;;;4.65;4.25;;;;;;;19.30;87.85;100773.88;6156691;28;20226;-75
2023/09/18 02:51:46;;;;;;;4.43;4.05;;;;;;;19.21;87.95;100762.25;6158713;28;20334;-76
2023/09/18 02:55:09;;;;;;;4.55;3.97;;;;;;;19.28;88.19;100767.78;6158853;28;20581;-74
2023/09/18 02:58:30;;;;;;;4.25;3.85;;;;;;;19.23;87.84;100751.13;6154778;28;20432;-74
2023/09/18 03:01:52;;;;;;;7.25;4.55;;;;;;;19.23;88.15;100759.31;6163136;28;20238;-75
2023/09/18 03:05:15;;;;;;;4.07;3.78;;;;;;;19.12;88.18;100758.81;6158871;28;20231;-74
2023/09/18 03:08:37;;;;;;;4.45;4.05;;;;;;;19.03;88.93;100773.63;6156686;28;20652;-74
2023/09/18 03:11:59;;;;;;;4.97;4.57;;;;;;;19.04;89.27;100772.59;6148924;28;20231;-74
2023/09/18 03:15:20;;;;;;;5.40;4.90;;;;;;;19.14;89.17;100770.38;6153914;28;20230;-75
2023/09/18 03:18:41;;;;;;;3.90;3.60;;;;;;;19.10;88.95;100766.34;6145031;28;20238;-75
2023/09/18 03:22:03;;;;;;;5.10;4.55;;;;;;;19.02;89.31;100755.53;6161079;28;20231;-75
2023/09/18 03:25:24;;;;;;;4.50;4.20;;;;;;;19.00;89.77;100741.19;6131074;28;20242;-75
2023/09/18 03:28:45;;;;;;;4.82;4.32;;;;;;;18.96;89.74;100737.16;6159314;28;20250;-75
2023/09/18 03:32:06;;;;;;;7.45;4.88;;;;;;;18.93;90.19;100729.38;6154274;28;20246;-75
2023/09/18 03:35:30;;;;;;;5.35;4.55;;;;;;;18.98;90.50;100718.69;6150375;28;20246;-74
2023/09/18 03:38:53;;;;;;;4.97;4.57;;;;;;;18.94;90.08;100713.84;6144984;28;20306;-75
2023/09/18 03:42:14;;;;;;;4.68;4.20;;;;;;;18.87;89.93;100715.63;6140336;28;20238;-74
2023/09/18 03:45:35;;;;;;;6.00;4.72;;;;;;;18.85;90.18;100702.19;6137656;28;20229;-75
2023/09/18 03:48:58;;;;;;;4.70;4.03;;;;;;;18.95;90.26;100696.38;6141620;28;20309;-75
2023/09/18 03:52:19;;;;;;;5.07;4.65;;;;;;;19.01;90.78;100685.53;6143964;28;20691;-75
2023/09/18 03:55:41;;;;;;;4.25;3.95;;;;;;;18.92;90.49;100692.16;6144940;28;20238;-75
2023/09/18 03:59:04;;;;;;;5.38;4.93;;;;;;;18.88;90.27;100688.13;6152969;28;20238;-75
2023/09/18 04:02:26;;;;;;;4.68;4.28;;;;;;;18.85;90.44;100684.94;6160579;28;21044;-74
2023/09/18 04:05:49;;;;;;;5.00;4.60;;;;;;;18.81;90.54;100669.97;6146182;28;20223;-74
2023/09/18 04:09:10;;;;;;;5.72;5.07;;;;;;;18.82;90.76;100667.03;6148071;28;20234;-75
2023/09/18 04:12:33;;;;;;;4.93;4.53;;;;;;;18.75;91.06;100666.16;6149474;28;20321;-75
2023/09/18 04:15:56;;;;;;;5.90;5.40;;;;;;;18.80;90.99;100662.81;6160432;28;20231;-74
2023/09/18 04:19:18;;;;;;;4.80;4.40;;;;;;;18.77;90.83;100661.34;6429655;23;20232;-74
2023/09/18 04:22:44;;;;;;;5.65;5.10;;;;;;;18.75;91.08;100651.63;6181519;28;20229;-76
2023/09/18 04:26:05;;;;;;;5.75;5.25;;;;;;;18.80;91.51;100646.41;6185459;28;20280;-75
2023/09/18 04:29:27;;;;;;;5.15;4.65;;;;;;;18.80;91.54;100640.94;6182408;28;20233;-75
2023/09/18 04:32:51;;;;;;;4.57;4.18;;;;;;;18.73;91.14;100637.34;6188115;28;20242;-75
2023/09/18 04:36:12;;;;;;;8.35;5.20;;;;;;;18.60;91.36;100642.66;6181584;28;20317;-76
2023/09/18 04:39:33;;;;;;;9.90;5.30;;;;;;;18.61;91.36;100642.44;6192556;28;20233;-75
2023/09/18 04:42:55;;;;;;;5.03;4.63;;;;;;;18.74;91.29;100631.66;6192222;28;20237;-75
2023/09/18 04:46:17;;;;;;;7.63;5.03;;;;;;;18.83;90.64;100614.13;6196736;28;20316;-75
2023/09/18 04:49:39;;;;;;;5.82;5.25;;;;;;;18.86;90.42;100596.47;6174873;28;20249;-75
2023/09/18 04:53:00;;;;;;;5.10;4.30;;;;;;;18.88;90.46;100606.16;6168046;28;20229;-75
2023/09/18 04:56:21;;;;;;;4.65;4.25;;;;;;;18.93;90.11;100592.75;6165017;28;20339;-75
2023/09/18 04:59:42;;;;;;;5.40;4.90;;;;;;;18.85;89.98;100584.72;6185621;28;20599;-74
2023/09/18 05:03:05;;;;;;;5.47;4.95;;;;;;;18.92;89.89;100580.13;6152046;28;20241;-74
2023/09/18 05:06:26;;;;;;;6.22;5.60;;;;;;;18.76;89.68;100572.22;6192842;28;20226;-74
2023/09/18 05:09:47;;;;;;;5.57;4.40;;;;;;;18.85;89.66;100564.75;6182779;28;20230;-75
2023/09/18 05:13:08;;;;;;;5.93;5.38;;;;;;;18.96;89.98;100554.09;6173828;28;20241;-72
2023/09/18 05:16:29;;;;;;;5.93;5.43;;;;;;;18.96;89.64;100539.63;6174501;28;20513;-73
2023/09/18 05:19:51;;;;;;;5.35;4.85;;;;;;;19.09;89.97;100521.41;6166622;28;20234;-71
2023/09/18 05:23:13;;;;;;;6.35;5.85;;;;;;;19.11;89.18;100527.53;6165644;28;20237;-74
2023/09/18 05:26:34;;;;;;;5.45;4.97;;;;;;;19.17;89.07;100513.06;6178959;28;20234;-73
2023/09/18 05:29:55;;;;;;;5.90;5.13;;;;;;;19.20;88.46;100516.44;6184234;28;20251;-73
2023/09/18 05:33:15;;;;;;;5.70;5.20;;;;;;;19.46;88.09;100513.91;6179454;28;20611;-72
2023/09/18 05:36:38;;;;;;;5.82;5.32;;;;;;;19.49;87.08;100511.59;6168926;28;20599;-74
2023/09/18 05:39:59;;;;;;;5.15;4.55;;;;;;;19.67;86.46;100516.53;6175157;28;20237;-72
2023/09/18 05:43:20;;;;;;;5.35;4.88;;;;;;;19.58;86.15;100518.59;6171364;28;20226;-74
2023/09/18 05:46:41;;;;;;;6.25;4.85;;;;;;;19.63;85.74;100518.00;6173126;28;20234;-71
2023/09/18 05:50:05;;;;;;;5.05;4.38;;;;;;;19.58;85.40;100504.06;6178941;28;20638;-72
2023/09/18 05:53:27;;;;;;;5.15;4.65;;;;;;;19.76;85.54;100504.34;6167309;28;20533;-70
2023/09/18 05:56:48;;;;;;;5.60;5.10;;;;;;;19.90;84.98;100495.16;6174297;28;20245;-77
2023/09/18 06:00:12;;;;;;;7.43;5.10;;;;;;;19.81;84.48;100485.44;6164693;28;20241;-73
2023/09/18 06:03:35;;;;;;;5.07;4.68;;;;;;;19.91;84.35;100494.09;6169184;28;20233;-76
2023/09/18 06:06:56;;;;;;;5.75;4.68;;;;;;;20.02;84.02;100478.97;6176610;28;20237;-76
2023/09/18 06:10:19;;;;;;;10.40;7.53;;;;;;;19.91;83.74;100475.78;6154516;28;20233;-76
2023/09/18 06:13:39;;;;;;;12.52;6.95;;;;;;;19.88;83.95;100481.66;6175571;28;20241;-74
2023/09/18 06:17:00;;;;;;;6.38;5.40;;;;;;;19.85;84.40;100481.25;6184910;28;20316;-73
2023/09/18 06:20:21;;;;;;;5.18;4.65;;;;;;;20.03;83.76;100473.28;6190606;28;20237;-73
2023/09/18 06:23:42;;;;;;;5.85;5.25;;;;;;;19.94;83.99;100472.63;6185143;28;20469;-73
2023/09/18 06:27:05;;;;;;;5.53;5.03;;;;;;;19.86;83.83;100464.59;6175748;28;20221;-73
2023/09/18 06:30:26;;;;;;;4.85;4.35;;;;;;;19.98;83.91;100461.28;6176795;28;20592;-73
2023/09/18 06:33:47;;;;;;;5.78;4.55;;;;;;;20.24;83.47;100458.59;6173668;28;20238;-73
2023/09/18 06:37:07;;;;;;;4.80;4.40;;;;;;;19.88;83.87;100454.28;6184210;28;20233;-73
2023/09/18 06:40:28;;;;;;;6.05;5.55;;;;;;;20.02;84.05;100452.44;6186609;28;20280;-73
2023/09/18 06:43:51;;;;;;;4.05;3.33;;;;;;;20.34;83.58;100440.72;6179874;28;20498;-74
2023/09/18 06:47:12;;;;;;;5.20;4.80;;;;;;;20.28;83.16;100447.03;6181061;28;20253;-73
2023/09/18 06:50:33;;;;;;;4.75;4.35;;;;;;;20.18;83.60;100435.63;6184943;28;20238;-73
2023/09/18 06:53:54;;;;;;;8.75;4.30;;;;;;;20.14;83.71;100423.41;6186472;28;20611;-74
2023/09/18 06:57:15;;;;;;;5.60;5.10;;;;;;;20.39;83.06;100420.91;6186647;28;20230;-74
2023/09/18 07:00:37;;;;;;;6.57;5.22;;;;;;;20.35;83.07;100408.72;6177941;28;20330;-74
2023/09/18 07:03:59;;;;;;;6.90;4.78;;;;;;;20.50;82.96;100395.66;6187083;28;20595;-74
2023/09/18 07:07:25;;;;;;;7.80;4.57;;;;;;;20.85;81.91;100391.56;6182600;28;20233;-72
2023/09/18 07:10:46;;;;;;;5.70;5.20;;;;;;;21.00;80.65;100391.31;6181100;28;22223;-72
2023/09/18 07:14:07;;;;;;;4.93;4.53;;;;;;;21.07;80.50;100383.97;6174513;28;20234;-72
2023/09/18 07:17:29;;;;;;;3.97;3.55;;;;;;;20.93;80.63;100374.03;6181538;28;20230;-72
2023/09/18 07:20:50;;;;;;;5.50;4.43;;;;;;;20.76;81.14;100370.13;6182069;28;20229;-73
2023/09/18 07:24:16;;;;;;;4.13;3.58;;;;;;;21.10;80.83;100364.34;6177641;28;20233;-73
2023/09/18 07:27:39;;;;;;;4.82;4.32;;;;;;;21.33;79.67;100356.44;6173229;28;20258;-73
2023/09/18 07:31:06;;;;;;;4.25;3.85;;;;;;;21.48;78.99;100355.09;6177913;28;20897;-73
2023/09/18 07:34:28;;;;;;;15.50;5.40;;;;;;;21.41;79.10;100361.66;6174963;28;20241;-73
2023/09/18 07:37:49;;;;;;;5.43;4.80;;;;;;;20.89;80.95;100381.03;6172875;28;20227;-72
2023/09/18 07:41:10;;;;;;;5.72;4.07;;;;;;;21.07;80.80;100359.28;6176788;28;20242;-79
2023/09/18 07:44:31;;;;;;;5.25;4.72;;;;;;;21.34;79.96;100356.19;6177816;28;20317;-77
2023/09/18 07:47:52;;;;;;;5.47;4.68;;;;;;;21.56;79.34;100339.41;6172912;28;20552;-78
2023/09/18 07:51:16;;;;;;;6.90;5.00;;;;;;;21.53;78.94;100343.44;6184078;28;20233;-78
2023/09/18 07:54:36;;;;;;;5.47;4.47;;;;;;;21.68;78.86;100340.38;6175773;28;20333;-78
2023/09/18 07:57:59;;;;;;;5.40;4.72;;;;;;;21.80;78.61;100330.41;6173313;28;20230;-78
2023/09/18 08:01:22;;;;;;;6.38;5.78;;;;;;;21.55;78.66;100324.03;6173689;28;20261;-78
2023/09/18 08:04:43;;;;;;;4.35;3.97;;;;;;;21.67;79.07;100328.59;6178015;28;20253;-79
2023/09/18 08:08:06;;;;;;;4.20;3.35;;;;;;;21.76;78.73;100327.25;6178834;28;20222;-78
2023/09/18 08:11:27;;;;;;;4.00;3.35;;;;;;;21.86;78.46;100313.06;6190238;28;20226;-79
2023/09/18 08:14:49;;;;;;;4.05;3.75;;;;;;;21.82;78.44;100320.88;6183081;28;20229;-78
2023/09/18 08:18:11;;;;;;;4.15;3.75;;;;;;;21.72;79.13;100323.25;6178915;28;20507;-77
2023/09/18 08:21:32;;;;;;;4.85;4.45;;;;;;;21.67;79.15;100319.50;6184603;28;20658;-78
2023/09/18 08:24:55;;;;;;;4.95;4.55;;;;;;;21.39;80.30;100369.25;6160447;28;20607;-78
2023/09/18 08:28:16;;;;;;;5.05;4.55;;;;;;;21.29;81.51;100377.13;6182555;28;20230;-77
2023/09/18 08:31:36;;;;;;;5.18;4.60;;;;;;;21.24;82.01;100357.72;6179864;28;20237;-78
2023/09/18 08:34:58;;;;;;;6.38;5.55;;;;;;;21.35;82.18;100355.16;6184274;28;20536;-78
2023/09/18 08:38:19;;;;;;;5.22;4.82;;;;;;;21.27;82.43;100355.41;6184032;28;20238;-76
2023/09/18 08:41:45;;;;;;;6.75;5.15;;;;;;;21.28;82.82;100367.19;6178012;28;20238;-67
2023/09/18 08:45:10;;;;;;;5.20;4.72;;;;;;;21.15;83.17;100367.28;6182947;28;20237;-67
2023/09/18 08:48:34;;;;;;;4.68;4.03;;;;;;;21.14;83.79;100357.34;6186645;28;20503;-66
2023/09/18 08:51:56;;;;;;;5.75;4.53;;;;;;;21.35;84.03;100355.16;6183714;28;20505;-67
2023/09/18 08:55:17;;;;;;;6.45;5.03;;;;;;;21.27;83.87;100358.16;6183820;28;20618;-67
2023/09/18 08:58:42;;;;;;;4.18;3.80;;;;;;;21.25;84.00;100353.94;6189209;28;20238;-68
2023/09/18 09:02:03;;;;;;;4.60;4.28;;;;;;;21.39;83.80;100364.63;6181382;28;20697;-68
2023/09/18 09:05:24;;;;;;;4.22;3.83;;;;;;;21.42;83.87;100355.94;6181077;28;20402;-68
2023/09/18 09:08:45;;;;;;;8.27;5.22;;;;;;;21.34;84.88;100350.72;6175420;28;20230;-68
2023/09/18 09:12:07;;;;;;;4.82;4.35;;;;;;;21.36;85.27;100348.59;6182806;28;20234;-68
2023/09/18 09:15:33;;;;;;;6.50;3.78;;;;;;;21.41;84.83;100343.31;6171918;28;20238;-68
2023/09/18 09:18:53;;;;;;;4.78;3.80;;;;;;;21.45;84.77;100340.94;6179008;28;20229;-68
2023/09/18 09:22:21;;;;;;;4.70;4.30;;;;;;;21.82;84.00;100331.06;6186388;28;20233;-66
2023/09/18 09:25:42;;;;;;;4.60;4.15;;;;;;;22.12;82.16;100332.91;6182700;28;20595;-66
2023/09/18 09:29:17;;;;;;;5.13;3.40;;;;;;;22.66;80.05;100326.69;6183494;28;20321;-66
2023/09/18 09:32:40;;;;;;;4.20;3.80;;;;;;;22.75;78.85;100328.09;6179701;28;20261;-66
2023/09/18 09:36:01;;;;;;;4.55;4.15;;;;;;;22.82;78.76;100315.09;6186295;28;20294;-66
2023/09/18 09:39:24;;;;;;;4.80;4.15;;;;;;;22.94;77.94;100316.03;6177086;28;20221;-67
2023/09/18 09:42:46;;;;;;;4.63;4.20;;;;;;;22.48;78.97;100320.31;6180325;28;20230;-67
2023/09/18 09:46:10;;;;;;;12.50;5.10;;;;;;;22.56;79.14;100311.78;6177656;28;20662;-67
2023/09/18 09:49:46;;;;;;;4.25;3.58;;;;;;;22.59;79.21;100314.13;6184785;28;20558;-67
2023/09/18 09:53:07;;;;;;;4.57;4.18;;;;;;;22.78;78.91;100313.06;6179870;28;20242;-68
2023/09/18 09:56:41;;;;;;;6.25;3.85;;;;;;;22.61;79.54;100318.28;6176468;28;20229;-67
2023/09/18 10:00:22;;;;;;;4.18;3.47;;;;;;;22.63;79.95;100307.94;6177415;28;20587;-67
2023/09/18 10:03:43;;;;;;;5.15;3.30;;;;;;;22.71;80.30;100293.88;6177526;28;20234;-67
2023/09/18 10:07:08;;;;;;;7.72;4.28;;;;;;;23.15;78.89;100289.09;6185324;28;20222;-66
2023/09/18 10:10:33;;;;;;;4.70;4.30;;;;;;;23.25;78.47;100278.38;6180867;28;20238;-68
2023/09/18 10:13:59;;;;;;;4.75;4.35;;;;;;;23.07;78.97;100300.44;6181994;28;20638;-67
2023/09/18 10:17:20;;;;;;;4.15;3.40;;;;;;;22.78;80.48;100308.38;6181573;28;20585;-68
2023/09/18 10:20:43;;;;;;;5.63;3.95;;;;;;;22.96;79.99;100310.28;6179236;28;20221;-67
2023/09/18 10:24:15;;;;;;;12.20;4.35;;;;;;;22.78;80.36;100307.56;6181347;28;20238;-68
2023/09/18 10:27:38;;;;;;;4.28;3.88;;;;;;;23.09;80.62;100314.78;6180994;28;20230;-67
2023/09/18 10:31:03;;;;;;;4.70;3.58;;;;;;;23.40;79.20;100314.59;6181930;28;20561;-67
2023/09/18 10:34:25;;;;;;;3.22;2.92;;;;;;;23.35;78.18;100301.53;6171354;28;20230;-67
2023/09/18 10:37:48;;;;;;;4.80;3.88;;;;;;;23.47;78.14;100307.94;6180573;28;20308;-67
2023/09/18 10:41:11;;;;;;;3.90;3.50;;;;;;;23.35;77.98;100307.03;6182892;28;20237;-68
2023/09/18 10:44:32;;;;;;;3.80;3.38;;;;;;;23.49;77.89;100313.22;6178062;28;20226;-68
2023/09/18 10:47:54;;;;;;;4.82;3.72;;;;;;;23.76;77.35;100296.03;6182370;28;20233;-67
2023/09/18 10:51:15;;;;;;;5.60;3.72;;;;;;;23.71;76.52;100306.94;6191787;28;20313;-67
2023/09/18 10:54:38;;;;;;;4.53;3.70;;;;;;;23.88;75.77;100326.38;6183356;28;20233;-67
2023/09/18 10:58:01;;;;;;;3.03;2.70;;;;;;;24.74;72.69;100328.53;6178159;28;20222;-68
2023/09/18 11:01:26;;;;;;;5.07;3.58;;;;;;;23.92;74.17;100337.75;6187791;28;20234;-68
2023/09/18 11:04:49;;;;;;;8.27;4.10;;;;;;;23.93;75.89;100333.94;6177423;28;20484;-68
2023/09/18 11:08:45;;;;;;;3.75;3.08;;;;;;;25.42;70.20;100315.66;6181575;28;20573;-68
2023/09/18 11:12:06;;;;;;;7.15;3.30;;;;;;;24.17;72.66;100322.75;6153072;28;20226;-68
2023/09/18 11:15:33;;;;;;;4.78;3.90;;;;;;;24.47;73.50;100308.81;6176809;28;20241;-68
2023/09/18 11:19:05;;;;;;;5.57;3.20;;;;;;;23.94;74.48;100314.41;6175194;28;20261;-68
2023/09/18 11:22:26;;;;;;;3.95;3.10;;;;;;;24.14;74.70;100311.34;6173973;28;20237;-68
2023/09/18 11:25:48;;;;;;;4.72;3.55;;;;;;;25.04;71.96;100316.22;6183924;28;20229;-68
2023/09/18 11:29:10;;;;;;;4.93;3.17;;;;;;;23.84;73.84;100326.00;6173612;28;20971;-68
2023/09/18 11:32:42;;;;;;;4.88;3.10;;;;;;;23.47;75.83;100329.94;6184298;28;20334;-68
2023/09/18 11:36:06;;;;;;;5.00;3.03;;;;;;;23.62;76.96;100327.59;6184626;28;20229;-68
2023/09/18 11:39:36;;;;;;;8.65;3.65;;;;;;;23.49;77.21;100325.03;6180245;28;20229;-68
2023/09/18 11:43:26;;;;;;;3.50;3.20;;;;;;;23.47;76.64;100323.59;6180776;28;20230;-68
2023/09/18 11:46:50;;;;;;;4.53;2.83;;;;;;;23.49;77.34;100330.53;6181064;28;20217;-68
2023/09/18 11:50:12;;;;;;;5.72;3.53;;;;;;;23.71;76.90;100328.13;6185671;28;20245;-68
2023/09/18 11:53:38;;;;;;;5.65;3.22;;;;;;;23.82;75.96;100327.31;6176191;28;20237;-68
2023/09/18 11:57:04;;;;;;;3.33;2.78;;;;;;;24.07;75.09;100327.16;6182060;28;20222;-68
2023/09/18 12:00:27;;;;;;;4.15;2.58;;;;;;;23.76;75.53;100326.31;6170511;28;20312;-68
2023/09/18 12:03:53;;;;;;;3.88;2.88;;;;;;;23.51;76.43;100355.09;6184320;28;20272;-68
2023/09/18 12:07:16;;;;;;;7.50;3.28;;;;;;;23.44;77.09;100357.09;6183351;28;20234;-68
2023/09/18 12:10:36;;;;;;;5.00;3.15;;;;;;;23.63;76.37;100351.31;6179715;28;20222;-68
2023/09/18 12:13:58;;;;;;;4.22;2.03;;;;;;;23.66;76.04;100339.84;6181638;28;21767;-67
2023/09/18 12:17:19;;;;;;;3.03;1.92;;;;;;;23.75;75.37;100340.34;6182376;28;20229;-68
2023/09/18 12:20:46;;;;;;;4.13;2.50;;;;;;;23.92;74.84;100329.50;6184908;28;20563;-67
2023/09/18 12:24:14;;;;;;;5.15;2.30;;;;;;;24.62;73.18;100322.97;6180123;28;20694;-67
2023/09/18 12:27:36;;;;;;;5.50;2.75;;;;;;;24.25;72.63;100330.66;6176416;28;20627;-68
2023/09/18 12:30:58;;;;;;;2.72;2.38;;;;;;;23.70;74.69;100338.28;6172070;28;20249;-67
2023/09/18 12:34:21;;;;;;;6.40;2.30;;;;;;;23.64;75.24;100330.13;6179453;28;20229;-69
2023/09/18 12:37:43;;;;;;;6.55;3.03;;;;;;;23.58;75.08;100340.16;6182189;28;20230;-67
2023/09/18 12:41:09;;;;;;;4.03;2.70;;;;;;;23.40;75.65;100344.88;6180081;28;20597;-67
2023/09/18 12:44:30;;;;;;;3.80;2.78;;;;;;;23.35;76.42;100326.31;6175751;28;20230;-67
2023/09/18 12:47:52;;;;;;;4.00;2.45;;;;;;;23.64;75.63;100306.19;6180160;28;20229;-68
2023/09/18 12:51:13;;;;;;;3.88;2.35;;;;;;;24.03;74.29;100306.66;6187893;28;20241;-68
2023/09/18 12:54:38;;;;;;;3.95;2.53;;;;;;;24.28;72.76;100312.81;6182518;28;20250;-67
2023/09/18 12:58:05;;;;;;;3.65;2.03;;;;;;;24.27;72.60;100311.13;6182947;28;20222;-67
2023/09/18 13:01:26;;;;;;;5.57;2.30;;;;;;;24.66;71.44;100323.34;6177586;28;20674;-68
2023/09/18 13:04:53;;;;;;;4.30;2.22;;;;;;;24.31;71.95;100326.94;6183321;28;20316;-69
2023/09/18 13:08:14;;;;;;;4.32;2.10;;;;;;;24.09;73.27;100336.03;6182679;28;20525;-67
2023/09/18 13:11:53;;;;;;;3.92;2.17;;;;;;;23.76;73.55;100342.03;6175984;28;20273;-67
2023/09/18 13:15:26;;;;;;;4.85;2.10;;;;;;;23.80;74.26;100321.22;6180531;28;20543;-67
2023/09/18 13:18:49;;;;;;;5.88;2.40;;;;;;;24.05;73.45;100318.28;6178781;28;20265;-67
2023/09/18 13:22:10;;;;;;;5.15;2.28;;;;;;;24.43;72.12;100316.75;6185551;28;20348;-69
2023/09/18 13:25:34;;;;;;;5.65;2.08;;;;;;;23.68;73.35;100329.41;6182583;28;20242;-68
2023/09/18 13:28:54;;;;;;;3.50;2.08;;;;;;;23.60;74.90;100316.00;6178535;28;20538;-67
2023/09/18 13:32:17;;;;;;;2.50;1.88;;;;;;;23.68;74.94;100331.31;6178175;28;20541;-67
2023/09/18 13:35:39;;;;;;;5.30;2.05;;;;;;;23.52;74.52;100330.09;6186116;28;20576;-68
2023/09/18 13:39:00;;;;;;;3.17;2.35;;;;;;;23.53;74.64;100323.50;6177587;28;20278;-67
2023/09/18 13:42:21;;;;;;;5.05;2.17;;;;;;;23.67;74.40;100322.25;6184181;28;20538;-67
2023/09/18 13:45:42;;;;;;;3.60;2.13;;;;;;;23.70;74.00;100329.19;6191206;28;20261;-67
2023/09/18 13:49:05;;;;;;;3.20;2.15;;;;;;;23.58;74.44;100318.16;6187473;28;20245;-68
2023/09/18 13:52:26;;;;;;;4.82;2.53;;;;;;;23.55;74.76;100310.34;6183438;28;20226;-68
2023/09/18 13:55:47;;;;;;;4.38;2.20;;;;;;;23.47;75.08;100307.06;6181139;28;20372;-67
2023/09/18 13:59:09;;;;;;;2.28;1.92;;;;;;;23.38;75.00;100319.50;6185150;28;20241;-68
2023/09/18 14:02:30;;;;;;;3.65;2.45;;;;;;;23.54;74.71;100305.94;6187598;28;20555;-67
2023/09/18 14:05:53;;;;;;;2.50;2.30;;;;;;;23.36;74.55;100305.16;6148332;28;20270;-67
2023/09/18 14:09:13;;;;;;;3.13;2.83;;;;;;;23.36;75.39;100307.91;6168987;28;20245;-67
2023/09/18 14:12:34;;;;;;;4.20;2.45;;;;;;;23.27;75.38;100295.50;6178528;28;20237;-69
2023/09/18 14:15:55;;;;;;;4.75;2.70;;;;;;;23.34;75.50;100305.38;6173246;28;20581;-68
2023/09/18 14:19:16;;;;;;;3.80;1.98;;;;;;;23.34;75.43;100310.88;6182519;28;20230;-67
2023/09/18 14:22:38;;;;;;;4.03;2.03;;;;;;;23.41;75.30;100317.13;6181352;28;20229;-67
2023/09/18 14:26:00;;;;;;;3.03;2.30;;;;;;;23.28;75.96;100320.00;6184602;28;20499;-67
2023/09/18 14:29:21;;;;;;;5.38;1.80;;;;;;;23.86;74.08;100311.16;6181771;28;20241;-68
2023/09/18 14:32:42;;;;;;;2.95;1.92;;;;;;;23.92;74.13;100310.22;6177898;28;20238;-68
2023/09/18 14:36:04;;;;;;;4.22;2.65;;;;;;;25.41;70.26;100302.91;6180525;28;20549;-68
2023/09/18 14:39:26;;;;;;;3.35;2.20;;;;;;;25.14;69.24;100313.66;6182095;28;20312;-67
2023/09/18 14:42:47;;;;;;;7.88;2.65;;;;;;;26.64;65.45;100294.53;6174067;28;20499;-67
2023/09/18 14:46:08;;;;;;;4.15;1.90;;;;;;;25.05;67.67;100303.28;6170665;28;20225;-68
2023/09/18 14:49:29;;;;;;;7.78;2.00;;;;;;;24.48;70.09;100311.38;6172173;28;20586;-67
2023/09/18 14:52:50;;;;;;;3.90;1.90;;;;;;;24.28;69.97;100297.09;6174845;28;21011;-70
2023/09/18 14:56:13;;;;;;;1.65;1.40;;;;;;;24.03;71.03;100292.88;6177111;28;20246;-68
2023/09/18 14:59:38;;;;;;;2.65;1.40;;;;;;;23.73;71.72;100304.78;6179049;28;20298;-69
2023/09/18 15:02:59;;;;;;;1.50;1.33;;;;;;;23.73;71.19;100309.44;6178770;28;20226;-68
2023/09/18 15:06:20;;;;;;;3.42;1.75;;;;;;;23.70;72.33;100305.25;6178686;28;20317;-67
2023/09/18 15:09:41;;;;;;;4.60;2.70;;;;;;;23.66;71.91;100304.03;6173614;28;20238;-68
2023/09/18 15:13:04;;;;;;;2.13;1.85;;;;;;;23.54;71.37;100299.56;6176859;28;20532;-68
2023/09/18 15:16:25;;;;;;;2.33;2.13;;;;;;;23.70;71.95;100296.16;6175667;28;20449;-67
2023/09/18 15:19:48;;;;;;;6.00;2.38;;;;;;;23.70;72.21;100296.16;6172497;28;20963;-68
2023/09/18 15:23:10;;;;;;;5.35;2.25;;;;;;;24.60;70.05;100303.91;6170739;28;20234;-67
2023/09/18 15:26:31;;;;;;;2.17;1.98;;;;;;;24.49;69.62;100310.28;6173346;28;20251;-68
2023/09/18 15:29:53;;;;;;;3.35;1.50;;;;;;;23.87;70.35;100319.19;6176116;28;20290;-67
2023/09/18 15:33:17;;;;;;;5.75;2.22;;;;;;;24.08;71.01;100301.28;6183765;28;20261;-67
2023/09/18 15:36:37;;;;;;;2.65;1.92;;;;;;;24.12;70.63;100297.81;6178113;28;20375;-67
2023/09/18 15:39:58;;;;;;;2.33;1.92;;;;;;;24.00;70.65;100310.72;6185403;28;20261;-68